Red Elm, South Dakota
Current Conditions -  °F | °C
As of 8:55 AM on Sunday 21 Dec 2014 (Local Time) from KPHP Reporting Station
Clear Clear  
Wind Chill: 26°   Ceiling: Unl
Heat Index: 26°   Visibility: 10mi
Dew Point: 23°   Wind: 0mph
Humidity: 88%   Direction: NA
Pressure: 29.53"   Gusts: NA
Location:  45.0029°N, 101.639°W
Report Text: KPHP 211555Z AUTO 00000KT 10SM CLR M03/M05 A2953 RMK AO2 SLP016 T10331050
Loading
Personal Weather Stations






























Interactive Weather Map New forecast layout! Learn more

10-Day Weather Forecast

Advertisements
Track Severe Weather on mobile